createdAt,value
2018-07-22T00:01:28.357Z,16.40
2018-07-22T00:03:55.425Z,16.40
2018-07-22T00:06:23.680Z,16.40
2018-07-22T00:08:50.417Z,16.30
2018-07-22T00:11:17.312Z,16.30
2018-07-22T00:13:44.310Z,16.30
2018-07-22T00:16:11.050Z,16.20
2018-07-22T00:18:37.790Z,16.20
2018-07-22T00:21:04.533Z,16.20
2018-07-22T00:23:31.311Z,16.10
2018-07-22T00:25:58.015Z,16.00
2018-07-22T00:28:24.781Z,15.90
2018-07-22T00:30:51.493Z,15.90
2018-07-22T00:33:18.119Z,15.80
2018-07-22T00:35:44.869Z,15.70
2018-07-22T00:38:11.713Z,15.70
2018-07-22T00:40:38.659Z,15.60
2018-07-22T00:43:05.375Z,15.60
2018-07-22T00:45:32.857Z,15.50
2018-07-22T00:47:59.602Z,15.40
2018-07-22T00:50:26.440Z,15.50
2018-07-22T00:52:53.178Z,15.40
2018-07-22T00:55:20.022Z,15.40
2018-07-22T00:57:46.863Z,15.30
2018-07-22T01:00:13.610Z,15.30
2018-07-22T01:02:42.544Z,15.20
2018-07-22T01:05:10.360Z,15.00
2018-07-22T01:07:37.104Z,15.00
2018-07-22T01:10:03.831Z,14.90
2018-07-22T01:12:31.301Z,14.70
2018-07-22T01:14:57.927Z,14.70
2018-07-22T01:17:24.781Z,14.60
2018-07-22T01:19:51.519Z,14.60
2018-07-22T01:22:18.259Z,14.60
2018-07-22T01:24:45.000Z,14.50
2018-07-22T01:27:11.745Z,14.50
2018-07-22T01:29:38.457Z,14.40
2018-07-22T01:32:05.937Z,14.30
2018-07-22T01:34:32.678Z,14.30
2018-07-22T01:36:59.353Z,14.20
2018-07-22T01:39:26.876Z,14.00
2018-07-22T01:41:53.616Z,14.00
2018-07-22T01:44:20.347Z,14.00
2018-07-22T01:46:47.784Z,13.80
2018-07-22T01:49:14.556Z,13.70
2018-07-22T01:51:41.296Z,13.70
2018-07-22T01:54:08.139Z,13.70
2018-07-22T01:56:35.682Z,13.60
2018-07-22T01:59:04.485Z,13.40
2018-07-22T02:01:33.205Z,13.40
2018-07-22T02:04:00.188Z,13.30
2018-07-22T02:06:29.184Z,13.20
2018-07-22T02:08:57.284Z,13.20
2018-07-22T02:11:24.640Z,13.10
2018-07-22T02:13:54.083Z,13.10
2018-07-22T02:16:22.922Z,13.10
2018-07-22T02:18:49.671Z,13.10
2018-07-22T02:21:16.618Z,13.00
2018-07-22T02:23:44.076Z,13.00
2018-07-22T02:26:11.431Z,13.00
2018-07-22T02:28:38.168Z,13.00
2018-07-22T02:31:05.119Z,12.90
2018-07-22T02:33:32.679Z,12.90
2018-07-22T02:36:00.363Z,12.90
2018-07-22T02:38:28.001Z,12.90
2018-07-22T02:40:56.584Z,12.90
2018-07-22T02:43:23.527Z,12.90
2018-07-22T02:45:51.940Z,13.00
2018-07-22T02:48:19.364Z,13.00
2018-07-22T02:50:47.026Z,13.20
2018-07-22T02:53:13.972Z,13.10
2018-07-22T02:55:41.326Z,13.20
2018-07-22T02:58:08.678Z,13.20
2018-07-22T03:00:36.036Z,13.20
2018-07-22T03:03:03.288Z,13.20
2018-07-22T03:05:30.555Z,13.20
2018-07-22T03:07:57.485Z,13.30
2018-07-22T03:10:24.232Z,13.30
2018-07-22T03:12:51.528Z,13.30
2018-07-22T03:15:19.345Z,13.30
2018-07-22T03:17:47.518Z,13.30
2018-07-22T03:20:14.256Z,13.30
2018-07-22T03:22:40.881Z,13.40
2018-07-22T03:25:08.286Z,13.50
2018-07-22T03:27:34.986Z,13.50
2018-07-22T03:30:01.661Z,13.60
2018-07-22T03:32:29.045Z,13.60
2018-07-22T03:34:55.743Z,13.60
2018-07-22T03:37:22.422Z,13.70
2018-07-22T03:39:49.084Z,13.80
2018-07-22T03:42:15.794Z,13.80
2018-07-22T03:44:43.287Z,13.90
2018-07-22T03:47:10.052Z,13.80
2018-07-22T03:49:36.777Z,14.00
2018-07-22T03:52:03.474Z,14.10
2018-07-22T03:54:30.112Z,14.20
2018-07-22T03:56:56.779Z,14.30
2018-07-22T03:59:24.194Z,14.60
2018-07-22T04:01:50.829Z,14.50
2018-07-22T04:04:17.518Z,14.70
2018-07-22T04:06:44.904Z,15.10
2018-07-22T04:09:11.609Z,15.00
2018-07-22T04:11:39.006Z,15.70
2018-07-22T04:14:05.749Z,15.70
2018-07-22T04:16:32.435Z,16.30
2018-07-22T04:18:59.833Z,17.80
2018-07-22T04:21:26.505Z,17.70
2018-07-22T04:23:53.924Z,18.90
2018-07-22T04:26:20.565Z,18.80
2018-07-22T04:28:47.192Z,19.70
2018-07-22T04:31:13.895Z,20.20
2018-07-22T04:33:41.351Z,22.20
2018-07-22T04:36:08.984Z,23.20
2018-07-22T04:38:35.689Z,23.20
2018-07-22T04:41:02.399Z,25.60
2018-07-22T04:43:29.264Z,27.00
2018-07-22T04:45:56.006Z,26.40
2018-07-22T04:48:22.743Z,26.70
2018-07-22T04:50:49.661Z,27.20
2018-07-22T04:53:17.117Z,27.60
2018-07-22T04:55:44.507Z,27.10
2018-07-22T04:58:11.242Z,27.10
2018-07-22T05:00:37.981Z,26.40
2018-07-22T05:03:04.909Z,27.20
2018-07-22T05:05:31.651Z,28.50
2018-07-22T05:07:59.226Z,29.20
2018-07-22T05:10:25.879Z,29.10
2018-07-22T05:12:52.608Z,29.70
2018-07-22T05:15:19.324Z,31.30
2018-07-22T05:17:46.803Z,31.50
2018-07-22T05:20:13.646Z,31.50
2018-07-22T05:22:40.386Z,31.50
2018-07-22T05:25:07.127Z,31.00
2018-07-22T05:27:33.865Z,32.60
2018-07-22T05:30:00.685Z,31.40
2018-07-22T05:32:28.164Z,30.00
2018-07-22T05:34:54.909Z,30.00
2018-07-22T05:37:21.749Z,30.00
2018-07-22T05:39:48.460Z,30.90
2018-07-22T05:42:15.921Z,30.60
2018-07-22T05:44:42.766Z,30.60
2018-07-22T05:47:10.248Z,30.70
2018-07-22T05:49:36.988Z,30.70
2018-07-22T05:52:03.729Z,31.70
2018-07-22T05:54:30.444Z,32.60
2018-07-22T05:56:57.923Z,33.00
2018-07-22T05:59:24.636Z,32.90
2018-07-22T06:01:51.403Z,33.90
2018-07-22T06:04:18.145Z,34.30
2018-07-22T06:06:44.883Z,36.90
2018-07-22T06:09:11.729Z,37.10
2018-07-22T06:11:38.445Z,35.10
2018-07-22T06:14:05.910Z,33.70
2018-07-22T06:16:33.488Z,34.80
2018-07-22T06:19:00.126Z,34.70
2018-07-22T06:21:26.863Z,35.00
2018-07-22T06:23:53.786Z,35.80
2018-07-22T06:26:21.266Z,35.70
2018-07-22T06:28:48.004Z,35.70
2018-07-22T06:31:14.846Z,36.90
2018-07-22T06:33:41.501Z,35.40
2018-07-22T06:36:08.227Z,37.50
2018-07-22T06:38:35.070Z,36.40
2018-07-22T06:41:01.885Z,38.20
2018-07-22T06:43:29.367Z,38.50
2018-07-22T06:45:56.213Z,38.40
2018-07-22T06:48:22.950Z,38.20
2018-07-22T06:50:49.693Z,37.60
2018-07-22T06:53:16.536Z,36.30
2018-07-22T06:55:43.682Z,36.50
2018-07-22T06:58:10.529Z,36.90
2018-07-22T07:00:37.270Z,36.40
2018-07-22T07:03:04.211Z,36.70
2018-07-22T07:05:30.958Z,36.20
2018-07-22T07:07:57.796Z,35.80
2018-07-22T07:10:24.536Z,34.70
2018-07-22T07:12:51.278Z,34.10
2018-07-22T07:15:18.021Z,33.80
2018-07-22T07:17:44.863Z,32.50
2018-07-22T07:20:11.598Z,33.00
2018-07-22T07:22:38.484Z,33.40
2018-07-22T07:25:05.285Z,32.90
2018-07-22T07:27:32.130Z,33.70
2018-07-22T07:29:58.870Z,34.00
2018-07-22T07:32:25.644Z,35.20
2018-07-22T07:34:52.554Z,35.40
2018-07-22T07:37:19.294Z,35.80
2018-07-22T07:39:46.032Z,35.30
2018-07-22T07:42:12.828Z,35.50
2018-07-22T07:44:39.617Z,35.90
2018-07-22T07:47:06.376Z,36.20
2018-07-22T07:49:33.037Z,36.60
2018-07-22T07:51:59.712Z,37.00
2018-07-22T07:54:27.195Z,34.80
2018-07-22T07:56:53.932Z,34.80
2018-07-22T07:59:20.860Z,34.60
2018-07-22T08:01:47.617Z,35.00
2018-07-22T08:04:14.357Z,35.30
2018-07-22T08:06:41.068Z,35.20
2018-07-22T08:09:08.462Z,35.30
2018-07-22T08:11:35.233Z,35.30
2018-07-22T08:14:02.035Z,34.30
2018-07-22T08:16:28.879Z,34.70
2018-07-22T08:18:56.624Z,34.40
2018-07-22T08:21:23.308Z,34.30
2018-07-22T08:23:57.235Z,33.10
2018-07-22T08:26:24.138Z,33.10
2018-07-22T08:28:50.876Z,35.10
2018-07-22T08:31:17.614Z,34.40
2018-07-22T08:33:44.359Z,34.20
2018-07-22T08:36:11.084Z,35.50
2018-07-22T08:38:37.734Z,34.50
2018-07-22T08:41:04.581Z,33.40
2018-07-22T08:43:31.319Z,31.80
2018-07-22T08:45:58.058Z,31.90
2018-07-22T08:48:25.007Z,32.10
2018-07-22T08:50:51.726Z,31.60
2018-07-22T08:53:19.260Z,31.70
2018-07-22T08:55:45.940Z,31.60
2018-07-22T08:58:12.788Z,30.60
2018-07-22T09:00:39.497Z,30.20
2018-07-22T09:03:07.108Z,29.10
2018-07-22T09:05:33.802Z,29.10
2018-07-22T09:08:00.446Z,28.70
2018-07-22T09:10:27.866Z,28.70
2018-07-22T09:12:54.531Z,28.60
2018-07-22T09:15:21.973Z,28.30
2018-07-22T09:17:48.826Z,28.20
2018-07-22T09:20:15.599Z,28.80
2018-07-22T09:22:42.313Z,28.60
2018-07-22T09:25:09.719Z,28.30
2018-07-22T09:27:36.644Z,28.20
2018-07-22T09:30:03.405Z,28.00
2018-07-22T09:32:38.169Z,28.10
2018-07-22T09:35:05.666Z,28.30
2018-07-22T09:37:32.402Z,28.30
2018-07-22T09:39:59.076Z,27.70
2018-07-22T09:42:25.866Z,27.90
2018-07-22T09:44:53.447Z,27.80
2018-07-22T09:47:20.183Z,27.70
2018-07-22T09:49:47.032Z,27.80
2018-07-22T09:52:13.869Z,28.10
2018-07-22T09:54:40.614Z,28.50
2018-07-22T09:57:07.656Z,28.90
2018-07-22T09:59:34.400Z,28.00
2018-07-22T10:02:01.141Z,27.60
2018-07-22T10:04:27.991Z,27.70
2018-07-22T10:06:54.724Z,27.40
2018-07-22T10:09:21.438Z,27.50
2018-07-22T10:11:49.002Z,27.30
2018-07-22T10:14:15.789Z,27.30
2018-07-22T10:16:42.502Z,27.50
2018-07-22T10:19:09.346Z,27.50
2018-07-22T10:21:36.007Z,27.60
2018-07-22T10:24:02.827Z,27.70
2018-07-22T10:26:29.568Z,28.10
2018-07-22T10:28:56.408Z,28.20
2018-07-22T10:31:23.560Z,28.20
2018-07-22T10:33:51.838Z,27.60
2018-07-22T10:36:18.573Z,27.60
2018-07-22T10:38:45.313Z,27.80
2018-07-22T10:41:12.161Z,27.60
2018-07-22T10:43:38.901Z,28.00
2018-07-22T10:46:05.746Z,28.00
2018-07-22T10:48:32.484Z,28.00
2018-07-22T10:50:59.351Z,28.10
2018-07-22T10:53:26.334Z,27.90
2018-07-22T10:55:53.216Z,27.90
2018-07-22T10:58:19.957Z,27.90
2018-07-22T11:00:46.909Z,28.00
2018-07-22T11:03:14.564Z,28.20
2018-07-22T11:05:41.305Z,28.20
2018-07-22T11:08:08.129Z,28.50
2018-07-22T11:10:35.103Z,28.50
2018-07-22T11:13:02.782Z,28.40
2018-07-22T11:15:30.393Z,28.20
2018-07-22T11:17:57.272Z,28.10
2018-07-22T11:20:24.124Z,27.80
2018-07-22T11:22:51.062Z,27.80
2018-07-22T11:25:18.673Z,27.80
2018-07-22T11:27:45.549Z,27.90
2018-07-22T11:30:12.493Z,28.00
2018-07-22T11:32:39.294Z,27.60
2018-07-22T11:35:06.268Z,27.40
2018-07-22T11:37:33.331Z,27.40
2018-07-22T11:40:00.281Z,27.20
2018-07-22T11:42:27.145Z,27.50
2018-07-22T11:44:54.060Z,27.80
2018-07-22T11:47:20.909Z,28.10
2018-07-22T11:49:48.168Z,28.30
2018-07-22T11:52:15.135Z,28.40
2018-07-22T11:54:42.252Z,28.40
2018-07-22T11:57:09.180Z,28.20
2018-07-22T11:59:36.070Z,28.30
2018-07-22T12:02:03.729Z,28.50
2018-07-22T12:04:30.602Z,28.50
2018-07-22T12:06:57.421Z,28.40
2018-07-22T12:09:25.151Z,28.60
2018-07-22T12:11:52.227Z,28.50
2018-07-22T12:14:19.212Z,28.70
2018-07-22T12:16:46.588Z,28.80
2018-07-22T12:19:13.637Z,28.40
2018-07-22T12:21:40.818Z,28.40
2018-07-22T12:24:10.906Z,27.80
2018-07-22T12:26:37.960Z,27.80
2018-07-22T12:29:04.963Z,27.80
2018-07-22T12:31:31.838Z,27.90
2018-07-22T12:33:58.903Z,27.90
2018-07-22T12:36:25.796Z,28.20
2018-07-22T12:38:54.317Z,28.40
2018-07-22T12:41:21.392Z,28.40
2018-07-22T12:43:49.253Z,28.70
2018-07-22T12:46:17.838Z,28.50
2018-07-22T12:48:45.661Z,28.30
2018-07-22T12:51:12.822Z,28.30
2018-07-22T12:53:39.699Z,28.40
2018-07-22T12:56:07.789Z,28.20
2018-07-22T12:58:35.422Z,28.10
2018-07-22T13:01:03.186Z,28.20
2018-07-22T13:03:30.849Z,28.30
2018-07-22T13:05:58.720Z,28.40
2018-07-22T13:08:25.887Z,28.40
2018-07-22T13:10:53.501Z,28.10
2018-07-22T13:13:20.675Z,28.10
2018-07-22T13:15:47.589Z,27.60
2018-07-22T13:18:15.719Z,27.70
2018-07-22T13:20:42.582Z,27.60
2018-07-22T13:23:10.245Z,27.10
2018-07-22T13:25:37.165Z,27.10
2018-07-22T13:28:04.189Z,27.00
2018-07-22T13:30:30.979Z,27.10
2018-07-22T13:32:57.864Z,27.30
2018-07-22T13:35:24.700Z,27.30
2018-07-22T13:37:51.872Z,27.50
2018-07-22T13:40:18.842Z,27.60
2018-07-22T13:42:46.513Z,27.40
2018-07-22T13:45:14.227Z,27.20
2018-07-22T13:47:41.282Z,27.20
2018-07-22T13:50:08.283Z,27.30
2018-07-22T13:52:36.109Z,26.90
2018-07-22T13:55:03.781Z,26.90
2018-07-22T13:57:31.453Z,26.90
2018-07-22T13:59:58.782Z,27.00
2018-07-22T14:02:25.816Z,27.10
2018-07-22T14:04:52.633Z,27.10
2018-07-22T14:07:20.163Z,27.20
2018-07-22T14:09:47.275Z,27.20
2018-07-22T14:12:14.256Z,27.10
2018-07-22T14:14:41.167Z,27.20
2018-07-22T14:17:07.985Z,27.00
2018-07-22T14:19:35.054Z,26.90
2018-07-22T14:22:01.977Z,26.70
2018-07-22T14:24:28.843Z,26.80
2018-07-22T14:26:56.033Z,26.70
2018-07-22T14:29:22.928Z,26.60
2018-07-22T14:31:50.612Z,26.70
2018-07-22T14:34:17.551Z,26.60
2018-07-22T14:36:44.356Z,26.70
2018-07-22T14:39:11.181Z,26.70
2018-07-22T14:41:37.997Z,26.50
2018-07-22T14:44:04.865Z,26.50
2018-07-22T14:46:32.373Z,26.40
2018-07-22T14:48:59.450Z,26.40
2018-07-22T14:51:26.366Z,26.30
2018-07-22T14:53:54.132Z,26.10
2018-07-22T14:56:21.305Z,26.10
2018-07-22T14:58:49.001Z,26.10
2018-07-22T15:01:15.947Z,26.10
2018-07-22T15:03:43.141Z,26.00
2018-07-22T15:06:09.941Z,25.80
2018-07-22T15:08:37.671Z,26.10
2018-07-22T15:11:05.574Z,26.00
2018-07-22T15:13:33.282Z,26.10
2018-07-22T15:16:02.863Z,26.10
2018-07-22T15:18:30.034Z,26.00
2018-07-22T15:20:56.953Z,26.10
2018-07-22T15:23:23.926Z,26.10
2018-07-22T15:26:09.192Z,26.20
2018-07-22T15:28:36.353Z,26.20
2018-07-22T15:31:03.294Z,26.10
2018-07-22T15:33:31.457Z,26.20
2018-07-22T15:35:58.316Z,26.20
2018-07-22T15:38:25.364Z,26.10
2018-07-22T15:40:52.052Z,25.70
2018-07-22T15:43:19.662Z,25.70
2018-07-22T15:45:46.477Z,25.60
2018-07-22T15:48:14.060Z,25.50
2018-07-22T15:50:40.905Z,25.40
2018-07-22T15:53:08.055Z,25.40
2018-07-22T15:55:35.236Z,25.40
2018-07-22T15:58:02.175Z,25.30
2018-07-22T16:00:29.096Z,25.30
2018-07-22T16:02:56.253Z,25.40
2018-07-22T16:05:23.947Z,25.60
2018-07-22T16:07:50.918Z,25.60
2018-07-22T16:10:18.922Z,25.70
2018-07-22T16:12:47.302Z,25.70
2018-07-22T16:15:14.452Z,25.70
2018-07-22T16:17:41.602Z,25.70
2018-07-22T16:20:08.878Z,25.70
2018-07-22T16:22:35.794Z,25.50
2018-07-22T16:25:02.683Z,25.30
2018-07-22T16:27:30.417Z,25.20
2018-07-22T16:29:57.464Z,25.20
2018-07-22T16:32:25.247Z,25.10
2018-07-22T16:34:53.124Z,25.20
2018-07-22T16:37:20.227Z,25.20
2018-07-22T16:39:47.070Z,25.20
2018-07-22T16:42:14.000Z,25.20
2018-07-22T16:44:40.836Z,25.10
2018-07-22T16:47:07.895Z,24.90
2018-07-22T16:49:34.764Z,24.90
2018-07-22T16:52:01.548Z,24.80
2018-07-22T16:54:28.432Z,24.80
2018-07-22T16:56:55.294Z,24.80
2018-07-22T16:59:22.946Z,24.90
2018-07-22T17:01:49.736Z,24.80
2018-07-22T17:04:16.632Z,24.80
2018-07-22T17:06:43.404Z,24.60
2018-07-22T17:09:10.163Z,24.60
2018-07-22T17:11:37.645Z,24.60
2018-07-22T17:14:04.427Z,24.50
2018-07-22T17:16:31.287Z,24.50
2018-07-22T17:18:58.916Z,24.40
2018-07-22T17:21:26.520Z,24.40
2018-07-22T17:23:54.905Z,24.40
2018-07-22T17:26:22.591Z,24.30
2018-07-22T17:28:49.567Z,24.30
2018-07-22T17:31:17.707Z,24.30
2018-07-22T17:33:45.182Z,24.30
2018-07-22T17:36:12.881Z,24.10
2018-07-22T17:38:41.469Z,24.10
2018-07-22T17:41:08.492Z,24.00
2018-07-22T17:43:35.463Z,24.00
2018-07-22T17:46:02.266Z,24.00
2018-07-22T17:48:28.968Z,23.80
2018-07-22T17:50:55.759Z,23.70
2018-07-22T17:53:22.487Z,23.70
2018-07-22T17:55:49.247Z,23.60
2018-07-22T17:58:16.085Z,23.50
2018-07-22T18:00:42.931Z,23.30
2018-07-22T18:03:09.853Z,23.30
2018-07-22T18:05:36.619Z,23.30
2018-07-22T18:08:03.557Z,23.30
2018-07-22T18:10:30.606Z,23.20
2018-07-22T18:12:57.487Z,23.30
2018-07-22T18:15:24.173Z,23.20
2018-07-22T18:17:51.128Z,23.20
2018-07-22T18:20:17.865Z,23.20
2018-07-22T18:22:44.558Z,23.10
2018-07-22T18:25:11.455Z,23.10
2018-07-22T18:27:38.128Z,23.00
2018-07-22T18:30:05.040Z,22.80
2018-07-22T18:32:31.924Z,22.80
2018-07-22T18:34:59.544Z,22.50
2018-07-22T18:37:26.341Z,22.50
2018-07-22T18:39:53.025Z,22.50
2018-07-22T18:42:19.869Z,22.40
2018-07-22T18:44:46.608Z,22.30
2018-07-22T18:47:13.653Z,22.20
2018-07-22T18:49:41.699Z,21.90
2018-07-22T18:52:08.420Z,21.90
2018-07-22T18:54:35.516Z,21.80
2018-07-22T18:57:02.359Z,21.70
2018-07-22T18:59:29.304Z,21.60
2018-07-22T19:01:56.117Z,21.50
2018-07-22T19:04:23.602Z,21.30
2018-07-22T19:06:50.432Z,21.20
2018-07-22T19:09:17.393Z,21.10
2018-07-22T19:11:44.236Z,21.00
2018-07-22T19:14:11.385Z,20.90
2018-07-22T19:16:38.125Z,20.70
2018-07-22T19:19:04.885Z,20.60
2018-07-22T19:21:31.913Z,20.50
2018-07-22T19:23:58.756Z,20.30
2018-07-22T19:26:25.801Z,20.20
2018-07-22T19:28:52.962Z,20.00
2018-07-22T19:31:19.794Z,19.80
2018-07-22T19:33:48.716Z,19.70
2018-07-22T19:36:16.248Z,19.40
2018-07-22T19:38:43.190Z,19.40
2018-07-22T19:41:10.037Z,19.20
2018-07-22T19:43:36.938Z,19.00
2018-07-22T19:46:03.825Z,18.90
2018-07-22T19:48:30.773Z,18.70
2018-07-22T19:50:57.608Z,18.50
2018-07-22T19:53:24.357Z,18.40
2018-07-22T19:55:51.269Z,18.20
2018-07-22T19:58:18.852Z,18.00
2018-07-22T20:00:46.105Z,18.00
2018-07-22T20:03:13.152Z,17.90
2018-07-22T20:05:40.200Z,17.80
2018-07-22T20:08:07.762Z,17.70
2018-07-22T20:10:35.526Z,17.80
2018-07-22T20:13:03.274Z,17.60
2018-07-22T20:15:30.030Z,17.60
2018-07-22T20:20:34.115Z,17.30
2018-07-22T20:23:01.618Z,17.10
2018-07-22T20:25:28.567Z,17.10
2018-07-22T20:27:56.593Z,17.00
2018-07-22T20:30:23.665Z,16.90
2018-07-22T20:32:50.526Z,16.80
2018-07-22T20:35:17.574Z,16.60
2018-07-22T20:37:44.519Z,16.50
2018-07-22T20:40:12.594Z,16.40
2018-07-22T20:42:40.867Z,16.30
2018-07-22T20:45:08.989Z,16.20
2018-07-22T20:47:38.563Z,16.10
2018-07-22T20:50:05.903Z,16.00
2018-07-22T20:52:33.381Z,16.00
2018-07-22T20:55:00.201Z,16.00
2018-07-22T20:57:27.041Z,15.90
2018-07-22T20:59:55.041Z,16.00
2018-07-22T21:02:21.834Z,15.90
2018-07-22T21:04:48.989Z,15.80
2018-07-22T21:07:16.461Z,15.70
2018-07-22T21:09:43.205Z,15.60
2018-07-22T21:15:18.697Z,15.60
2018-07-22T21:17:45.675Z,15.60
2018-07-22T21:20:12.352Z,15.50
2018-07-22T21:22:39.092Z,15.40
2018-07-22T21:25:05.809Z,15.40
2018-07-22T21:27:33.293Z,15.30
2018-07-22T21:30:00.057Z,15.30
2018-07-22T21:32:26.774Z,15.30
2018-07-22T21:34:53.514Z,15.10
2018-07-22T21:37:20.250Z,15.10
2018-07-22T21:39:47.095Z,14.90
2018-07-22T21:42:13.836Z,14.90
2018-07-22T21:44:40.572Z,14.90
2018-07-22T21:47:07.519Z,14.90
2018-07-22T21:49:34.568Z,14.80
2018-07-22T21:52:01.410Z,14.70
2018-07-22T21:54:28.564Z,14.60
2018-07-22T21:56:55.428Z,14.60
2018-07-22T21:59:22.962Z,14.50
2018-07-22T22:01:50.611Z,14.50
2018-07-22T22:04:17.677Z,14.40
2018-07-22T22:06:44.821Z,14.40
2018-07-22T22:09:11.561Z,14.40
2018-07-22T22:11:38.302Z,14.30
2018-07-22T22:14:06.069Z,14.20
2018-07-22T22:16:32.784Z,14.10
2018-07-22T22:19:00.349Z,14.10
2018-07-22T22:21:28.646Z,14.10
2018-07-22T22:23:56.205Z,14.10
2018-07-22T22:26:23.146Z,14.10
2018-07-22T22:28:49.888Z,14.10
2018-07-22T22:31:16.627Z,14.00
2018-07-22T22:33:43.367Z,14.00
2018-07-22T22:36:10.006Z,14.00
2018-07-22T22:38:36.950Z,13.90
2018-07-22T22:41:03.741Z,13.90
2018-07-22T22:43:30.430Z,13.80
2018-07-22T22:45:57.149Z,13.80
2018-07-22T22:48:24.627Z,13.70
2018-07-22T22:50:51.370Z,13.70
2018-07-22T22:53:18.080Z,13.70
2018-07-22T22:55:45.688Z,13.70
2018-07-22T22:58:24.682Z,13.60
2018-07-22T23:00:51.645Z,13.60
2018-07-22T23:03:37.124Z,13.60
2018-07-22T23:06:03.941Z,13.50
2018-07-22T23:08:30.747Z,13.50
2018-07-22T23:10:57.654Z,13.50
2018-07-22T23:13:24.594Z,13.50
2018-07-22T23:15:51.313Z,13.40
2018-07-22T23:18:18.280Z,13.40
2018-07-22T23:20:45.228Z,13.40
2018-07-22T23:23:11.942Z,13.40
2018-07-22T23:25:39.631Z,13.30
2018-07-22T23:28:06.473Z,13.30
2018-07-22T23:30:33.318Z,13.30
2018-07-22T23:33:00.159Z,13.30
2018-07-22T23:35:27.006Z,13.20
2018-07-22T23:37:53.738Z,13.20
2018-07-22T23:40:20.891Z,13.10
2018-07-22T23:42:47.737Z,13.10
2018-07-22T23:45:15.398Z,13.10
2018-07-22T23:47:42.133Z,13.00
2018-07-22T23:50:08.976Z,13.00
2018-07-22T23:52:35.827Z,12.90
2018-07-22T23:55:02.644Z,13.00
2018-07-22T23:57:29.513Z,12.90
2018-07-22T23:59:56.408Z,12.90
